Terminal Aerodrome Forecast
Issued by NWS Twin Cities, MN

Home | Current Version | Previous Version | Text Only | Print | Product List | Glossary On
Versions: 1 2 3 4 5 6 7 8 9 10 11 12 13 14 15 16 17 18 19 20 21 22
000
FTUS43 KMPX 141948 AAA
TAFSTC
TAF AMD
KSTC 141948Z 1420/1518 05005KT P6SM SCT025 BKN035
     FM142300 04003KT P6SM SCT035
     FM150200 04003KT P6SM SKC
     FM150500 00000KT 2SM BR SKC
     FM150700 00000KT 1/4SM FG VV002
      TEMPO 1512/1514 3SM BR BKN005
     FM151400 08004KT P6SM SKC=

USA.gov is the U.S. government's official web portal to all federal, state and local government web resources and services.